Time,TemperatureF,DewpointF,PressureIn,WindDirection,WindDirectionDegrees,WindSpeedMPH,WindSpeedGustMPH,Humidity,HourlyPrecipIn,Conditions,Clouds,dailyrainin,SoftwareType,DateUTC
2013-02-21 00:12:00,21.2,17.0,29.77,North,360,0.0,-999.0,82,-99.99,,,0.00,weatherlink.com 1.10,2013-02-21 05:12:00,
2013-02-21 00:27:00,20.9,17.0,29.78,North,360,0.0,-999.0,84,-99.99,,,0.00,weatherlink.com 1.10,2013-02-21 05:27:00,
2013-02-21 00:42:00,21.0,17.0,29.79,NW,319,3.0,-999.0,84,-99.99,,,0.00,weatherlink.com 1.10,2013-02-21 05:42:00,
2013-02-21 00:57:00,21.2,17.0,29.79,West,267,3.0,-999.0,83,-99.99,,,0.00,weatherlink.com 1.10,2013-02-21 05:57:00,
2013-02-21 01:12:00,21.2,16.0,29.79,WSW,249,3.0,-999.0,79,-99.99,,,0.00,weatherlink.com 1.10,2013-02-21 06:12:00,
2013-02-21 01:27:00,21.1,14.0,29.79,WSW,246,8.0,-999.0,75,-99.99,,,0.00,weatherlink.com 1.10,2013-02-21 06:27:00,
2013-02-21 01:42:00,20.9,14.0,29.80,WNW,286,3.0,-999.0,73,-99.99,,,0.00,weatherlink.com 1.10,2013-02-21 06:42:00,
2013-02-21 01:57:00,20.5,12.0,29.80,NW,314,6.0,-999.0,71,-99.99,,,0.00,weatherlink.com 1.10,2013-02-21 06:57:00,
2013-02-21 02:12:00,19.7,12.0,29.80,NNW,348,5.0,-999.0,72,-99.99,,,0.00,weatherlink.com 1.10,2013-02-21 07:12:00,
2013-02-21 02:42:00,18.9,12.0,29.79,NW,308,4.0,-999.0,74,-99.99,,,0.00,weatherlink.com 1.10,2013-02-21 07:42:00,
2013-02-21 02:57:00,18.6,11.0,29.80,NNW,348,5.0,-999.0,73,-99.99,,,0.00,weatherlink.com 1.10,2013-02-21 07:57:00,
2013-02-21 03:12:00,18.2,11.0,29.80,WSW,255,0.0,-999.0,72,-99.99,,,0.00,weatherlink.com 1.10,2013-02-21 08:12:00,
2013-02-21 03:27:00,17.9,10.0,29.80,NW,317,0.0,-999.0,72,-99.99,,,0.00,weatherlink.com 1.10,2013-02-21 08:27:00,
2013-02-21 03:42:00,17.9,10.0,29.80,WNW,300,4.0,-999.0,71,-99.99,,,0.00,weatherlink.com 1.10,2013-02-21 08:42:00,
2013-02-21 03:57:00,17.8,10.0,29.80,North,10,2.0,-999.0,71,-99.99,,,0.00,weatherlink.com 1.10,2013-02-21 08:57:00,
2013-02-21 04:12:00,17.6,12.0,29.81,North,355,7.0,-999.0,77,-99.99,,,0.00,weatherlink.com 1.10,2013-02-21 09:12:00,
2013-02-21 04:27:00,17.3,9.0,29.81,West,279,14.0,-999.0,69,-99.99,,,0.00,weatherlink.com 1.10,2013-02-21 09:27:00,
2013-02-21 04:42:00,17.0,9.0,29.82,WNW,282,3.0,-999.0,70,-99.99,,,0.00,weatherlink.com 1.10,2013-02-21 09:42:00,
2013-02-21 04:58:00,16.8,9.0,29.82,West,275,0.0,-999.0,71,-99.99,,,0.00,weatherlink.com 1.10,2013-02-21 09:58:00,
2013-02-21 05:12:00,16.6,9.0,29.83,NNW,343,2.0,-999.0,71,-99.99,,,0.00,weatherlink.com 1.10,2013-02-21 10:12:00,
2013-02-21 05:28:00,16.7,9.0,29.84,WNW,299,7.0,-999.0,71,-99.99,,,0.00,weatherlink.com 1.10,2013-02-21 10:28:00,
2013-02-21 05:43:00,16.5,9.0,29.84,NE,40,2.0,-999.0,72,-99.99,,,0.00,weatherlink.com 1.10,2013-02-21 10:43:00,
2013-02-21 05:58:00,15.9,10.0,29.85,NNE,28,8.0,-999.0,76,-99.99,,,0.00,weatherlink.com 1.10,2013-02-21 10:58:00,
2013-02-21 06:13:00,15.3,10.0,29.86,NNW,346,2.0,-999.0,79,-99.99,,,0.00,weatherlink.com 1.10,2013-02-21 11:13:00,
2013-02-21 06:28:00,15.0,10.0,29.87,West,279,0.0,-999.0,79,-99.99,,,0.00,weatherlink.com 1.10,2013-02-21 11:28:00,
2013-02-21 06:43:00,14.6,9.0,29.88,NNW,348,3.0,-999.0,79,-99.99,,,0.00,weatherlink.com 1.10,2013-02-21 11:43:00,
2013-02-21 06:58:00,14.1,9.0,29.88,NE,34,2.0,-999.0,79,-99.99,,,0.00,weatherlink.com 1.10,2013-02-21 11:58:00,
2013-02-21 07:13:00,13.5,8.0,29.89,NNE,30,1.0,-999.0,80,-99.99,,,0.00,weatherlink.com 1.10,2013-02-21 12:13:00,
2013-02-21 07:28:00,13.1,9.0,29.90,NNW,344,3.0,-999.0,82,-99.99,,,0.00,weatherlink.com 1.10,2013-02-21 12:28:00,
2013-02-21 07:43:00,13.0,9.0,29.90,NNE,15,1.0,-999.0,83,-99.99,,,0.00,weatherlink.com 1.10,2013-02-21 12:43:00,
2013-02-21 07:58:00,13.1,9.0,29.91,North,10,2.0,-999.0,83,-99.99,,,0.00,weatherlink.com 1.10,2013-02-21 12:58:00,
2013-02-21 08:13:00,13.2,9.0,29.91,North,353,1.0,-999.0,84,-99.99,,,0.00,weatherlink.com 1.10,2013-02-21 13:13:00,
2013-02-21 08:28:00,13.5,10.0,29.91,NNE,25,5.0,-999.0,84,-99.99,,,0.00,weatherlink.com 1.10,2013-02-21 13:28:00,
2013-02-21 08:43:00,13.6,12.0,29.91,NE,39,4.0,-999.0,92,-99.99,,,0.00,weatherlink.com 1.10,2013-02-21 13:43:00,
2013-02-21 08:58:00,14.3,10.0,29.91,NE,45,5.0,-999.0,83,-99.99,,,0.00,weatherlink.com 1.10,2013-02-21 13:58:00,
2013-02-21 09:13:00,15.1,10.0,29.92,WNW,286,6.0,-999.0,79,-99.99,,,0.00,weatherlink.com 1.10,2013-02-21 14:13:00,
2013-02-21 09:28:00,16.1,9.0,29.92,NW,305,7.0,-999.0,74,-99.99,,,0.00,weatherlink.com 1.10,2013-02-21 14:28:00,
2013-02-21 09:43:00,16.8,9.0,29.92,NNW,341,4.0,-999.0,70,-99.99,,,0.00,weatherlink.com 1.10,2013-02-21 14:43:00,
2013-02-21 09:59:00,18.0,8.0,29.93,North,359,6.0,-999.0,66,-99.99,,,0.00,weatherlink.com 1.10,2013-02-21 14:59:00,
2013-02-21 10:14:00,17.6,8.0,29.93,NE,39,9.0,-999.0,65,-99.99,,,0.00,weatherlink.com 1.10,2013-02-21 15:14:00,
2013-02-21 10:29:00,17.5,8.0,29.93,ENE,76,6.0,-999.0,66,-99.99,,,0.00,weatherlink.com 1.10,2013-02-21 15:29:00,
2013-02-21 10:44:00,18.1,8.0,29.94,NNW,333,11.0,-999.0,64,-99.99,,,0.00,weatherlink.com 1.10,2013-02-21 15:44:00,
2013-02-21 10:58:00,18.8,8.0,29.94,NNE,15,11.0,-999.0,62,-99.99,,,0.00,weatherlink.com 1.10,2013-02-21 15:58:00,
2013-02-21 11:13:00,19.5,8.0,29.94,NW,306,9.0,-999.0,61,-99.99,,,0.00,weatherlink.com 1.10,2013-02-21 16:13:00,
2013-02-21 11:28:00,19.7,8.0,29.94,North,10,7.0,-999.0,60,-99.99,,,0.00,weatherlink.com 1.10,2013-02-21 16:28:00,
2013-02-21 11:44:00,20.6,8.0,29.95,NNW,344,6.0,-999.0,59,-99.99,,,0.00,weatherlink.com 1.10,2013-02-21 16:44:00,
2013-02-21 11:59:00,21.0,9.0,29.95,NW,317,12.0,-999.0,59,-99.99,,,0.00,weatherlink.com 1.10,2013-02-21 16:59:00,
2013-02-21 12:14:00,21.1,9.0,29.95,NNW,338,13.0,-999.0,59,-99.99,,,0.00,weatherlink.com 1.10,2013-02-21 17:14:00,
2013-02-21 12:29:00,20.9,9.0,29.96,NNW,338,8.0,-999.0,59,-99.99,,,0.00,weatherlink.com 1.10,2013-02-21 17:29:00,
2013-02-21 12:44:00,20.9,9.0,29.96,NNE,15,11.0,-999.0,60,-99.99,,,0.00,weatherlink.com 1.10,2013-02-21 17:44:00,
2013-02-21 12:59:00,20.9,9.0,29.97,North,360,4.0,-999.0,61,-99.99,,,0.00,weatherlink.com 1.10,2013-02-21 17:59:00,
2013-02-21 13:14:00,21.2,10.0,29.97,NNW,344,10.0,-999.0,61,-99.99,,,0.00,weatherlink.com 1.10,2013-02-21 18:14:00,
2013-02-21 13:29:00,21.0,9.0,29.98,NNW,331,10.0,-999.0,61,-99.99,,,0.00,weatherlink.com 1.10,2013-02-21 18:29:00,
2013-02-21 13:44:00,21.7,10.0,29.99,NE,34,4.0,-999.0,61,-99.99,,,0.00,weatherlink.com 1.10,2013-02-21 18:44:00,
2013-02-21 13:59:00,21.8,10.0,29.99,NNE,26,6.0,-999.0,61,-99.99,,,0.00,weatherlink.com 1.10,2013-02-21 18:59:00,
2013-02-21 14:14:00,21.4,10.0,30.00,NNE,32,13.0,-999.0,62,-99.99,,,0.00,weatherlink.com 1.10,2013-02-21 19:14:00,
2013-02-21 14:29:00,21.8,11.0,30.00,North,355,5.0,-999.0,63,-99.99,,,0.00,weatherlink.com 1.10,2013-02-21 19:29:00,
2013-02-21 14:44:00,22.1,11.0,30.02,NNE,15,6.0,-999.0,63,-99.99,,,0.00,weatherlink.com 1.10,2013-02-21 19:44:00,
2013-02-21 14:59:00,22.1,12.0,30.02,NNE,15,5.0,-999.0,64,-99.99,,,0.00,weatherlink.com 1.10,2013-02-21 19:59:00,
2013-02-21 15:14:00,22.3,12.0,30.03,North,349,5.0,-999.0,64,-99.99,,,0.00,weatherlink.com 1.10,2013-02-21 20:14:00,
2013-02-21 15:29:00,21.9,11.0,30.04,NNE,25,14.0,-999.0,64,-99.99,,,0.00,weatherlink.com 1.10,2013-02-21 20:29:00,
2013-02-21 15:44:00,21.8,12.0,30.05,North,3,9.0,-999.0,65,-99.99,,,0.00,weatherlink.com 1.10,2013-02-21 20:44:00,
2013-02-21 15:59:00,21.6,12.0,30.07,WNW,303,7.0,-999.0,66,-99.99,,,0.00,weatherlink.com 1.10,2013-02-21 20:59:00,
2013-02-21 16:14:00,21.4,12.0,30.08,NNW,329,9.0,-999.0,67,-99.99,,,0.00,weatherlink.com 1.10,2013-02-21 21:14:00,
2013-02-21 16:29:00,21.1,12.0,30.09,NE,47,5.0,-999.0,69,-99.99,,,0.00,weatherlink.com 1.10,2013-02-21 21:29:00,
2013-02-21 16:44:00,20.8,13.0,30.10,NE,38,6.0,-999.0,72,-99.99,,,0.00,weatherlink.com 1.10,2013-02-21 21:44:00,
2013-02-21 16:59:00,20.7,13.0,30.11,NNE,29,7.0,-999.0,72,-99.99,,,0.00,weatherlink.com 1.10,2013-02-21 21:59:00,
2013-02-21 17:14:00,20.7,13.0,30.13,NNE,32,7.0,-999.0,71,-99.99,,,0.00,weatherlink.com 1.10,2013-02-21 22:14:00,
2013-02-21 17:29:00,20.6,13.0,30.14,NNW,328,8.0,-999.0,71,-99.99,,,0.00,weatherlink.com 1.10,2013-02-21 22:29:00,
2013-02-21 17:44:00,20.6,13.0,30.15,NNE,30,7.0,-999.0,71,-99.99,,,0.00,weatherlink.com 1.10,2013-02-21 22:44:00,
2013-02-21 17:59:00,20.7,13.0,30.17,NNW,346,4.0,-999.0,71,-99.99,,,0.00,weatherlink.com 1.10,2013-02-21 22:59:00,
2013-02-21 18:14:00,20.7,13.0,30.18,NNE,24,5.0,-999.0,71,-99.99,,,0.00,weatherlink.com 1.10,2013-02-21 23:14:00,
2013-02-21 18:29:00,20.7,13.0,30.19,North,10,3.0,-999.0,72,-99.99,,,0.00,weatherlink.com 1.10,2013-02-21 23:29:00,
2013-02-21 18:44:00,20.7,13.0,30.20,NE,48,6.0,-999.0,72,-99.99,,,0.00,weatherlink.com 1.10,2013-02-21 23:44:00,
2013-02-21 19:00:00,20.9,14.0,30.21,North,359,8.0,-999.0,73,-99.99,,,0.00,weatherlink.com 1.10,2013-02-22 00:00:00,
2013-02-21 19:15:00,20.9,14.0,30.21,North,10,6.0,-999.0,73,-99.99,,,0.00,weatherlink.com 1.10,2013-02-22 00:15:00,
2013-02-21 19:30:00,20.9,14.0,30.22,North,349,6.0,-999.0,73,-99.99,,,0.00,weatherlink.com 1.10,2013-02-22 00:30:00,
2013-02-21 19:45:00,20.9,14.0,30.23,NNE,15,8.0,-999.0,74,-99.99,,,0.00,weatherlink.com 1.10,2013-02-22 00:45:00,
2013-02-21 20:00:00,20.8,14.0,30.23,NNE,20,6.0,-999.0,74,-99.99,,,0.00,weatherlink.com 1.10,2013-02-22 01:00:00,
2013-02-21 20:15:00,20.9,14.0,30.23,NW,312,5.0,-999.0,74,-99.99,,,0.00,weatherlink.com 1.10,2013-02-22 01:15:00,
2013-02-21 20:30:00,20.6,14.0,30.24,North,4,6.0,-999.0,75,-99.99,,,0.00,weatherlink.com 1.10,2013-02-22 01:30:00,
2013-02-21 20:45:00,20.6,14.0,30.24,North,10,12.0,-999.0,75,-99.99,,,0.00,weatherlink.com 1.10,2013-02-22 01:45:00,
2013-02-21 21:00:00,20.9,14.0,30.24,NNW,342,6.0,-999.0,76,-99.99,,,0.00,weatherlink.com 1.10,2013-02-22 02:00:00,
2013-02-21 21:15:00,20.6,14.0,30.25,NNE,15,7.0,-999.0,76,-99.99,,,0.00,weatherlink.com 1.10,2013-02-22 02:15:00,
2013-02-21 21:30:00,20.5,14.0,30.25,NNW,346,10.0,-999.0,77,-99.99,,,0.00,weatherlink.com 1.10,2013-02-22 02:30:00,
2013-02-21 21:45:00,20.7,15.0,30.26,North,10,15.0,-999.0,77,-99.99,,,0.00,weatherlink.com 1.10,2013-02-22 02:45:00,
2013-02-21 22:00:00,20.8,15.0,30.27,NNE,32,5.0,-999.0,77,-99.99,,,0.00,weatherlink.com 1.10,2013-02-22 03:00:00,
2013-02-21 22:15:00,21.3,15.0,30.29,NW,323,6.0,-999.0,78,-99.99,,,0.00,weatherlink.com 1.10,2013-02-22 03:15:00,
2013-02-21 22:30:00,21.9,16.0,30.30,NNE,20,14.0,-999.0,78,-99.99,,,0.00,weatherlink.com 1.10,2013-02-22 03:30:00,
2013-02-21 22:45:00,22.1,16.0,30.30,NNE,26,4.0,-999.0,77,-99.99,,,0.00,weatherlink.com 1.10,2013-02-22 03:45:00,
2013-02-21 23:00:00,21.8,16.0,30.30,East,98,5.0,-999.0,78,-99.99,,,0.00,weatherlink.com 1.10,2013-02-22 04:00:00,
2013-02-21 23:30:00,21.7,16.0,30.33,NE,37,2.0,-999.0,79,-99.99,,,0.00,weatherlink.com 1.10,2013-02-22 04:30:00,
2013-02-21 23:45:00,22.3,17.0,30.35,NNE,26,2.0,-999.0,79,-99.99,,,0.00,weatherlink.com 1.10,2013-02-22 04:45:00,